AirNav   Bose ProFlight Series 2 Headset
 
 937 users online  

MU44 Texas County Memorial Hospital Heliport
Houston, Missouri, USA

GOING TO HOUSTON?


FAA INFORMATION EFFECTIVE 30 JANUARY 2020

Location

FAA Identifier: MU44
Lat/Long: 37-19-00.1900N 091-57-39.6000W
37-19.003167N 091-57.660000W
37.3167194,-91.9610000
(estimated)
Elevation: 1228 ft. / 374 m (estimated)
Variation: 03E (1985)
From city: 1 mile SSE of HOUSTON, MO
Time zone: UTC -6 (UTC -5 during Daylight Saving Time)
Zip code: 65483

Heliport Operations

Heliport use: Private use, MEDICAL.
Activation date: 02/1985
Control tower: no
ARTCC: KANSAS CITY CENTER
FSS: COLUMBIA FLIGHT SERVICE STATION
Attendance: UNATNDD
Wind indicator: yes
Segmented circle: no
Lights: FOR PERIMETER LGTS CALL 417-967-1268.

Nearby radio navigation aids

VOR radial/distance  VOR name  Freq  Var
MAPr201/18.4MAPLES VORTAC113.4006E
TBNr162/(26.9)FORNEY VOR110.0000E

Heliport Services

Runway Information

Helipad H1

Dimensions: 40 x 40 ft. / 12 x 12 m
Surface: concrete, in good condition
Runway edge lights: PERI
Latitude: 37-19.003167N
Longitude: 091-57.660000W
Elevation: 1228.0 ft.
Traffic pattern: leftleft
Markings: basic

Heliport Ownership and Management from official FAA records

Ownership: Publicly-owned
Owner: TEXAS COUNTY MEML HOSPITAL
1333 S. SAM HOUSTON BOULEVARD
HOUSTON, MO 65483
Phone 417-967-3311
Manager: WILLIAM BRIDGES
1333 S. SAM HOUSTON BOULEVARD
HOUSTON, MO 65483
Phone (417) 967-1385
ADDNL CTC: BILL BRIDGES 1333 S. SAM HOUSTON BOULEVARD HOUSTON, MO 65483 417-967-1385

Additional Remarks

FOR CD CTC KANSAS CITY ARTCC AT 913-254-8508.

Instrument Procedures

There are no published instrument procedures at MU44.

Some nearby airports with instrument procedures:

M48 - Houston Memorial Airport (1 nm NW)
KTVB - Cabool Memorial Airport (13 nm SW)
1MO - Mountain Grove Memorial Airport (20 nm SW)
KMNF - Mountain View Airport (23 nm SE)
K33 - Salem Memorial Airport (25 nm NE)
 
Loc | Ops | Rwys | IFR | FBO | Links
Com | Nav | Svcs | Stats | Notes

Kansas City Aviation Department
 
Area around MU44 (Texas County Memorial Hospital Heliport)
 
Road maps at: MapQuest Bing Google
 
Aerial photo
No photo
 
Sectional chart

 
Airport distance calculator
Flying to Texas County Memorial Hospital Heliport? Find the distance to fly.

From to MU44

Sunrise and sunset
Times for 16-Feb-2020
 Local
(UTC-6)
 Zulu
(UTC)
Morning civil twilight06:3012:30
Sunrise06:5712:57
Sunset17:4723:47
Evening civil twilight18:1400:14

Current date and time
Zulu (UTC)  17-Feb-2020 02:30:59
Local (UTC-6)  16-Feb-2020 20:30:59
 
METAR
KTBN 
25nm N 
170156Z AUTO 11005KT 10SM OVC055 09/00 A2997 RMK AO2 SLP156 T00880003
KUNO 
26nm S 
170153Z AUTO 12006KT 10SM OVC039 10/01 A2999 RMK AO2 SLP159 T01000006
KLBO 
38nm NW 
170215Z AUTO 12005KT 10SM BKN042 BKN050 10/01 A2997 RMK AO2
KVIH 
50nm N 
170153Z AUTO 09008KT 10SM SCT050 07/M02 A3000 RMK AO2 SLP165 T00671017 $
TAF
NOTAMs
Click for the latest NOTAMs
NOTAMs are issued by the DoD/FAA and will open in a separate window not controlled by AirNav.

 

 
 

Would you like to see your business listed on this page?

 If your business provides an interesting product or service to pilots, flight crews, aircraft, or users of the Texas County Memorial Hospital Heliport, you should consider listing it here.  To start the listing process, click on the button below
 
Add a business
 

Other Pages about Texas County Memorial Hospital Heliport

Update a link
 
Copyright © AirNav, LLC. All rights reserved. Privacy Policy  Contact